Time;durP1;ratioP1;P1;durP2;ratioP2;P2;SDS_P1;SDS_P2;PMS_P1;PMS_P2;Temp;Humidity;BMP_temperature;BMP_pressure;BME280_temperature;BME280_humidity;BME280_pressure;Samples;Min_cycle;Max_cycle;Signal;HPM_P1;HPM_P2
2021/07/08 00:01:58;;;;;;;13.65;9.40;;;589.40;2432.00;;;;;;5095654;28;20024;-82
2021/07/08 00:04:24;;;;;;;11.50;8.90;;;589.30;2432.00;;;;;;5097144;28;20032;-84
2021/07/08 00:06:50;;;;;;;14.43;8.60;;;589.30;2432.00;;;;;;5095913;28;20024;-84
2021/07/08 00:09:16;;;;;;;12.63;8.60;;;589.30;2432.00;;;;;;5095475;28;20455;-82
2021/07/08 00:11:42;;;;;;;13.48;9.13;;;589.30;2432.00;;;;;;5096932;28;20016;-83
2021/07/08 00:14:08;;;;;;;16.65;8.45;;;589.20;2432.00;;;;;;5095500;28;20076;-82
2021/07/08 00:16:36;;;;;;;17.35;8.98;;;589.20;2432.00;;;;;;5095558;28;20020;-82
2021/07/08 00:19:04;;;;;;;15.38;9.00;;;589.30;2432.00;;;;;;5095568;28;20066;-84
2021/07/08 00:21:29;;;;;;;11.98;8.63;;;589.10;2432.00;;;;;;5095423;28;20020;-83
2021/07/08 00:23:55;;;;;;;11.25;8.50;;;589.10;2432.00;;;;;;5096710;28;20080;-84
2021/07/08 00:26:21;;;;;;;14.85;8.68;;;589.10;2432.00;;;;;;5095460;28;20023;-83
2021/07/08 00:28:47;;;;;;;10.38;8.85;;;588.90;2432.00;;;;;;5095220;28;20024;-82
2021/07/08 00:31:13;;;;;;;12.73;8.75;;;589.00;2432.00;;;;;;5095205;28;20453;-81
2021/07/08 00:33:39;;;;;;;13.27;8.77;;;588.90;2432.00;;;;;;5095271;28;20024;-82
2021/07/08 00:36:05;;;;;;;10.77;7.75;;;588.90;2432.00;;;;;;5094969;28;20046;-83
2021/07/08 00:38:31;;;;;;;10.23;8.52;;;588.90;2432.00;;;;;;5096432;28;20016;-83
2021/07/08 00:40:57;;;;;;;14.18;8.48;;;588.80;2432.00;;;;;;5094821;28;20024;-80
2021/07/08 00:43:27;;;;;;;10.57;8.88;;;588.80;2432.00;;;;;;5094572;28;20050;-83
2021/07/08 00:45:53;;;;;;;15.93;8.57;;;564.10;2432.00;;;;;;5094900;28;20069;-83
2021/07/08 00:48:18;;;;;;;12.07;9.13;;;564.10;2432.00;;;;;;5096281;28;20016;-82
2021/07/08 00:50:48;;;;;;;13.20;8.27;;;564.10;2432.00;;;;;;5094765;28;20020;-82
2021/07/08 00:53:16;;;;;;;13.35;9.52;;;564.00;2432.00;;;;;;5094891;28;20024;-80
2021/07/08 00:55:45;;;;;;;14.85;9.30;;;564.10;2432.00;;;;;;5094610;28;20016;-82
2021/07/08 00:58:14;;;;;;;10.07;8.32;;;564.00;2432.00;;;;;;5096026;28;20040;-82
2021/07/08 01:00:40;;;;;;;12.30;8.38;;;564.00;2432.00;;;;;;5094663;28;20020;-83
2021/07/08 01:03:10;;;;;;;12.60;9.55;;;564.00;2432.00;;;;;;5095720;28;20047;-82
2021/07/08 01:05:42;;;;;;;11.43;8.43;;;564.00;2432.00;;;;;;5094744;28;20337;-80
2021/07/08 01:08:11;;;;;;;10.40;7.93;;;563.90;2432.00;;;;;;5094540;28;20027;-82
2021/07/08 01:10:37;;;;;;;12.82;8.60;;;563.90;2432.00;;;;;;5094099;28;20019;-82
2021/07/08 01:13:03;;;;;;;12.00;8.63;;;563.80;2432.00;;;;;;5094368;28;20115;-82
2021/07/08 01:15:30;;;;;;;12.05;8.45;;;563.80;2432.00;;;;;;5095837;28;20020;-82
2021/07/08 01:17:56;;;;;;;13.05;8.27;;;563.80;2432.00;;;;;;5094176;28;20027;-82
2021/07/08 01:20:33;;;;;;;12.98;8.05;;;564.10;2432.00;;;;;;5094189;28;20048;-81
2021/07/08 01:23:00;;;;;;;17.58;8.88;;;563.80;2432.00;;;;;;5094177;28;20051;-81
2021/07/08 01:25:29;;;;;;;14.25;8.60;;;563.60;2432.00;;;;;;5094114;28;20027;-81
2021/07/08 01:27:57;;;;;;;13.20;8.75;;;563.60;2432.00;;;;;;5094141;28;20024;-81
2021/07/08 01:30:23;;;;;;;12.93;8.95;;;563.60;2432.00;;;;;;5094902;28;20099;-82
2021/07/08 01:32:50;;;;;;;13.35;8.57;;;563.50;2432.00;;;;;;5093684;28;20024;-82
2021/07/08 01:35:16;;;;;;;9.65;7.97;;;563.50;2432.00;;;;;;5094066;28;20017;-81
2021/07/08 01:37:42;;;;;;;9.73;8.55;;;563.50;2432.00;;;;;;5093880;28;20418;-80
2021/07/08 01:40:09;;;;;;;12.95;8.45;;;563.50;2432.00;;;;;;5093652;28;20020;-83
2021/07/08 01:42:36;;;;;;;10.52;8.50;;;563.50;2432.00;;;;;;5093320;28;20503;-82
2021/07/08 01:45:04;;;;;;;11.45;8.73;;;563.40;2432.00;;;;;;5093953;28;20028;-81
2021/07/08 01:47:30;;;;;;;13.57;8.50;;;563.40;2432.00;;;;;;5094897;28;20043;-80
2021/07/08 01:49:56;;;;;;;10.25;8.30;;;563.40;2432.00;;;;;;5093510;28;20031;-82
2021/07/08 01:52:21;;;;;;;11.93;9.02;;;563.40;2432.00;;;;;;5092836;28;20048;-80
2021/07/08 01:54:47;;;;;;;11.60;8.73;;;563.30;2432.00;;;;;;5093515;28;20466;-80
2021/07/08 01:57:13;;;;;;;9.35;7.85;;;538.50;2406.40;;;;;;5093421;28;20031;-80
2021/07/08 01:59:39;;;;;;;11.93;8.13;;;563.20;2432.00;;;;;;5094547;28;20095;-79
2021/07/08 02:02:05;;;;;;;12.73;8.88;;;563.40;2432.00;;;;;;5093553;28;20452;-79
2021/07/08 02:04:31;;;;;;;12.65;8.35;;;563.20;2432.00;;;;;;5093421;28;20028;-81
2021/07/08 02:06:57;;;;;;;13.60;8.73;;;563.40;2432.00;;;;;;5093249;28;20024;-79
2021/07/08 02:09:24;;;;;;;10.45;8.93;;;563.30;2432.00;;;;;;5093383;28;20020;-82
2021/07/08 02:11:50;;;;;;;10.00;8.77;;;538.30;2406.40;;;;;;5093302;28;20463;-81
2021/07/08 02:14:15;;;;;;;12.38;9.02;;;538.50;2406.40;;;;;;5094372;28;20051;-81
2021/07/08 02:16:41;;;;;;;16.05;9.93;;;538.50;2406.40;;;;;;5093306;28;20016;-82
2021/07/08 02:19:07;;;;;;;11.55;8.48;;;563.20;2432.00;;;;;;5093288;28;20471;-80
2021/07/08 02:21:34;;;;;;;13.30;8.40;;;538.50;2406.40;;;;;;5093115;28;20131;-81
2021/07/08 02:24:00;;;;;;;11.20;8.82;;;538.50;2406.40;;;;;;5092949;28;20024;-82
2021/07/08 02:26:26;;;;;;;12.02;8.70;;;538.20;2406.40;;;;;;5093444;28;20016;-80
2021/07/08 02:28:52;;;;;;;9.73;8.25;;;538.30;2406.40;;;;;;5093902;28;20020;-82
2021/07/08 02:31:18;;;;;;;10.77;8.75;;;538.30;2406.40;;;;;;5093291;28;20107;-80
2021/07/08 02:33:45;;;;;;;12.15;8.88;;;538.50;2406.40;;;;;;5092993;28;20047;-82
2021/07/08 02:36:10;;;;;;;10.57;8.77;;;538.30;2406.40;;;;;;5093002;28;20023;-80
2021/07/08 02:38:37;;;;;;;11.13;8.55;;;538.20;2406.40;;;;;;5092977;28;20204;-82
2021/07/08 02:41:04;;;;;;;12.63;9.48;;;538.20;2406.40;;;;;;5092878;28;20052;-83
2021/07/08 02:43:30;;;;;;;9.80;8.80;;;538.00;2406.40;;;;;;5092599;28;20040;-81
2021/07/08 02:45:56;;;;;;;10.43;8.60;;;538.10;2406.40;;;;;;5092971;28;20065;-82
2021/07/08 02:48:23;;;;;;;9.73;8.65;;;538.20;2406.40;;;;;;5092592;28;20444;-80
2021/07/08 02:50:51;;;;;;;12.13;9.27;;;538.20;2406.40;;;;;;5092858;28;20024;-81
2021/07/08 02:53:18;;;;;;;14.38;9.20;;;538.30;2406.40;;;;;;5092800;28;20455;-81
2021/07/08 02:55:44;;;;;;;11.50;8.18;;;538.10;2406.40;;;;;;5092745;28;20020;-82
2021/07/08 02:58:10;;;;;;;12.25;8.80;;;538.30;2406.40;;;;;;5092896;28;20462;-81
2021/07/08 03:00:36;;;;;;;14.52;8.55;;;538.50;2406.40;;;;;;5092620;28;20020;-80
2021/07/08 03:03:03;;;;;;;11.52;8.82;;;538.50;2406.40;;;;;;5092428;28;20061;-81
2021/07/08 03:05:29;;;;;;;15.05;9.07;;;538.50;2406.40;;;;;;5095414;28;20031;-82
2021/07/08 03:07:56;;;;;;;12.20;9.10;;;538.10;2406.40;;;;;;5098013;28;20020;-81
2021/07/08 03:10:24;;;;;;;10.65;8.57;;;538.30;2406.40;;;;;;5096737;28;20492;-79
2021/07/08 03:12:51;;;;;;;11.30;9.10;;;538.20;2406.40;;;;;;5096654;28;20035;-81
2021/07/08 03:15:17;;;;;;;10.50;9.13;;;538.00;2406.40;;;;;;5096745;28;20043;-81
2021/07/08 03:17:43;;;;;;;9.38;8.48;;;537.80;2406.40;;;;;;5096458;28;20048;-81
2021/07/08 03:20:21;;;;;;;11.65;9.30;;;538.00;2406.40;;;;;;5097826;28;20091;-82
2021/07/08 03:22:49;;;;;;;11.13;9.23;;;538.00;2406.40;;;;;;5096622;28;20036;-81
2021/07/08 03:25:17;;;;;;;10.65;9.27;;;538.00;2406.40;;;;;;5096180;28;20023;-81
2021/07/08 03:27:44;;;;;;;13.15;10.35;;;538.00;2406.40;;;;;;5096457;28;20087;-81
2021/07/08 03:30:16;;;;;;;12.50;8.90;;;537.80;2406.40;;;;;;5096373;28;20020;-82
2021/07/08 03:32:42;;;;;;;12.85;9.23;;;537.80;2406.40;;;;;;5096174;28;20028;-81
2021/07/08 03:35:09;;;;;;;11.00;9.18;;;537.60;2406.40;;;;;;5097227;28;20020;-80
2021/07/08 03:37:36;;;;;;;10.90;8.60;;;537.90;2406.40;;;;;;5096228;28;20024;-81
2021/07/08 03:40:04;;;;;;;13.15;9.63;;;537.80;2406.40;;;;;;5096366;28;20032;-81
2021/07/08 03:42:30;;;;;;;11.18;9.48;;;537.90;2406.40;;;;;;5095764;28;20036;-81
2021/07/08 03:44:56;;;;;;;13.40;10.35;;;537.90;2406.40;;;;;;5097385;28;20024;-82
2021/07/08 03:47:21;;;;;;;13.27;10.02;;;538.00;2406.40;;;;;;5097242;28;20048;-82
2021/07/08 03:49:47;;;;;;;12.18;8.90;;;537.90;2406.40;;;;;;5096151;28;20078;-80
2021/07/08 03:52:13;;;;;;;12.40;9.02;;;537.90;2406.40;;;;;;5095825;28;20111;-82
2021/07/08 03:54:39;;;;;;;12.48;9.43;;;537.90;2406.40;;;;;;5095938;28;20450;-81
2021/07/08 03:57:05;;;;;;;14.40;9.93;;;537.90;2406.40;;;;;;5097129;28;20016;-81
2021/07/08 03:59:31;;;;;;;11.88;9.70;;;538.00;2406.40;;;;;;5096761;28;20024;-82
2021/07/08 04:01:57;;;;;;;15.90;11.10;;;538.00;2406.40;;;;;;5095582;28;20028;-82
2021/07/08 04:04:22;;;;;;;10.55;9.45;;;537.90;2406.40;;;;;;5095645;28;20024;-81
2021/07/08 04:06:48;;;;;;;16.55;9.65;;;537.70;2406.40;;;;;;5095362;28;20024;-82
2021/07/08 04:09:14;;;;;;;12.18;10.35;;;537.80;2406.40;;;;;;5095562;28;20019;-80
2021/07/08 04:11:40;;;;;;;12.20;9.80;;;512.90;2380.80;;;;;;5095912;28;20414;-82
2021/07/08 04:14:06;;;;;;;10.70;8.48;;;537.90;2406.40;;;;;;5095652;28;20020;-80
2021/07/08 04:16:32;;;;;;;12.70;9.00;;;538.00;2406.40;;;;;;5095240;28;20048;-81
2021/07/08 04:18:57;;;;;;;13.10;9.60;;;538.00;2406.40;;;;;;5095267;28;20055;-81
2021/07/08 04:21:23;;;;;;;11.98;9.23;;;538.10;2406.40;;;;;;5095502;28;20030;-83
2021/07/08 04:23:49;;;;;;;12.40;9.57;;;538.10;2406.40;;;;;;5095434;28;20027;-80
2021/07/08 04:26:15;;;;;;;11.68;10.00;;;538.20;2406.40;;;;;;5108879;28;20133;-80
2021/07/08 04:28:41;;;;;;;12.63;9.48;;;538.20;2406.40;;;;;;5110875;28;20030;-80
2021/07/08 04:31:09;;;;;;;14.40;9.90;;;538.20;2406.40;;;;;;5109604;28;20020;-81
2021/07/08 04:33:39;;;;;;;13.60;10.27;;;538.20;2406.40;;;;;;5094994;28;20417;-80
2021/07/08 04:36:05;;;;;;;12.18;10.18;;;538.40;2406.40;;;;;;5095182;28;20020;-82
2021/07/08 04:38:32;;;;;;;16.00;10.02;;;538.50;2406.40;;;;;;5096351;28;20045;-81
2021/07/08 04:40:58;;;;;;;15.68;9.43;;;538.20;2406.40;;;;;;5094718;28;20467;-83
2021/07/08 04:43:24;;;;;;;14.43;9.25;;;538.20;2406.40;;;;;;5096129;28;20040;-82
2021/07/08 04:45:52;;;;;;;12.73;9.63;;;538.30;2406.40;;;;;;5094966;28;20466;-83
2021/07/08 04:48:19;;;;;;;15.15;9.75;;;538.30;2406.40;;;;;;5094659;28;20190;-81
2021/07/08 04:50:44;;;;;;;17.33;11.10;;;538.30;2406.40;;;;;;5095090;28;20047;-81
2021/07/08 04:53:17;;;;;;;15.07;10.32;;;563.20;2432.00;;;;;;5094702;28;20467;-81
2021/07/08 04:55:44;;;;;;;13.35;9.23;;;563.30;2432.00;;;;;;5094632;28;20016;-82
2021/07/08 04:58:10;;;;;;;16.48;9.50;;;563.20;2432.00;;;;;;5094696;28;20085;-81
2021/07/08 05:00:36;;;;;;;21.63;9.65;;;563.30;2432.00;;;;;;5094615;28;20436;-81
2021/07/08 05:03:07;;;;;;;14.23;10.18;;;563.20;2432.00;;;;;;5094274;28;20123;-81
2021/07/08 05:05:33;;;;;;;14.57;9.52;;;538.50;2406.40;;;;;;5094755;28;20448;-80
2021/07/08 05:07:58;;;;;;;14.15;8.95;;;563.40;2432.00;;;;;;5094380;28;20027;-83
2021/07/08 05:10:25;;;;;;;12.82;9.15;;;563.50;2432.00;;;;;;5094594;28;20398;-83
2021/07/08 05:12:51;;;;;;;16.77;9.00;;;588.80;2432.00;;;;;;5094517;28;20024;-83
2021/07/08 05:15:17;;;;;;;21.80;10.57;;;563.50;2432.00;;;;;;5094022;28;20471;-82
2021/07/08 05:17:45;;;;;;;28.35;10.25;;;563.60;2432.00;;;;;;5094292;28;20024;-82
2021/07/08 05:20:11;;;;;;;14.15;9.40;;;563.70;2432.00;;;;;;5094516;28;20016;-80
2021/07/08 05:22:38;;;;;;;13.82;9.60;;;563.70;2432.00;;;;;;5094042;28;20020;-82
2021/07/08 05:25:05;;;;;;;16.10;9.35;;;563.90;2432.00;;;;;;5094043;28;20020;-83
2021/07/08 05:27:32;;;;;;;11.38;9.45;;;564.00;2432.00;;;;;;5092973;28;20016;-81
2021/07/08 05:29:59;;;;;;;13.27;10.07;;;564.00;2432.00;;;;;;5093876;28;20107;-83
2021/07/08 05:32:25;;;;;;;23.48;11.07;;;564.00;2432.00;;;;;;5094033;28;20020;-82
2021/07/08 05:34:51;;;;;;;16.45;10.75;;;564.10;2432.00;;;;;;5094067;28;20020;-81
2021/07/08 05:37:17;;;;;;;15.82;10.20;;;564.10;2432.00;;;;;;5095172;28;20447;-83
2021/07/08 05:39:42;;;;;;;12.07;10.35;;;588.80;2432.00;;;;;;5093869;28;20106;-83
2021/07/08 05:42:08;;;;;;;14.90;9.93;;;588.80;2432.00;;;;;;5093741;28;20077;-82
2021/07/08 05:44:34;;;;;;;15.07;10.32;;;589.00;2432.00;;;;;;5093717;28;20039;-82
2021/07/08 05:47:00;;;;;;;11.68;9.15;;;589.00;2432.00;;;;;;5093875;28;20024;-82
2021/07/08 05:49:26;;;;;;;13.00;9.63;;;589.10;2432.00;;;;;;5093766;28;20108;-83
2021/07/08 05:51:52;;;;;;;13.38;9.82;;;589.20;2432.00;;;;;;5093676;28;20406;-82
2021/07/08 05:54:18;;;;;;;12.23;9.88;;;589.20;2432.00;;;;;;5093754;28;20031;-81
2021/07/08 05:56:43;;;;;;;14.27;9.90;;;589.30;2432.00;;;;;;5093536;28;20103;-82
2021/07/08 05:59:09;;;;;;;14.60;10.00;;;589.30;2432.00;;;;;;5094446;28;20020;-83
2021/07/08 06:01:35;;;;;;;14.77;9.30;;;589.40;2432.00;;;;;;5093485;28;20024;-82
2021/07/08 06:04:01;;;;;;;16.15;11.07;;;589.50;2432.00;;;;;;5093414;28;20088;-82
2021/07/08 06:06:26;;;;;;;17.88;9.73;;;589.60;2432.00;;;;;;5094780;28;20042;-83
2021/07/08 06:08:52;;;;;;;12.63;9.27;;;589.70;2432.00;;;;;;5094879;28;20047;-82
2021/07/08 06:11:18;;;;;;;13.68;9.45;;;614.50;2432.00;;;;;;5093127;28;20020;-82
2021/07/08 06:13:44;;;;;;;12.77;9.32;;;614.60;2432.00;;;;;;5093525;28;20031;-83
2021/07/08 06:16:10;;;;;;;18.80;9.73;;;614.70;2432.00;;;;;;5094420;28;20499;-81
2021/07/08 06:18:36;;;;;;;15.10;9.43;;;614.80;2432.00;;;;;;5093273;28;20020;-83
2021/07/08 06:21:04;;;;;;;16.67;9.80;;;614.90;2432.00;;;;;;5093215;28;20020;-83
2021/07/08 06:23:31;;;;;;;11.65;9.32;;;614.90;2432.00;;;;;;5094350;28;20028;-81
2021/07/08 06:25:58;;;;;;;12.52;9.45;;;615.00;2432.00;;;;;;5093047;28;20046;-83
2021/07/08 06:28:23;;;;;;;11.27;9.50;;;615.20;2432.00;;;;;;5094463;28;20024;-82
2021/07/08 06:30:49;;;;;;;15.23;8.48;;;615.30;2432.00;;;;;;5092921;28;20023;-83
2021/07/08 06:33:16;;;;;;;11.05;8.77;;;640.00;2432.00;;;;;;5093056;28;20132;-81
2021/07/08 06:35:42;;;;;;;14.65;9.18;;;640.10;2432.00;;;;;;5093125;28;20364;-83
2021/07/08 06:38:08;;;;;;;15.23;9.77;;;640.30;2432.00;;;;;;5092914;28;20372;-83
2021/07/08 06:40:34;;;;;;;11.90;9.32;;;640.50;2432.00;;;;;;5092999;28;20451;-84
2021/07/08 06:43:00;;;;;;;12.98;8.90;;;640.50;2432.00;;;;;;5092526;28;20131;-82
2021/07/08 06:45:27;;;;;;;14.60;9.55;;;640.60;2432.00;;;;;;5092971;28;20020;-82
2021/07/08 06:48:01;;;;;;;11.00;9.30;;;640.70;2432.00;;;;;;5092667;28;20050;-82
2021/07/08 06:50:28;;;;;;;11.50;9.32;;;640.80;2432.00;;;;;;5093453;28;20436;-81
2021/07/08 06:52:53;;;;;;;9.50;8.13;;;665.60;2432.00;;;;;;5092733;28;20024;-80
2021/07/08 06:55:19;;;;;;;13.95;9.25;;;665.90;2432.00;;;;;;5093110;28;20123;-82
2021/07/08 06:57:52;;;;;;;15.13;9.10;;;665.70;2432.00;;;;;;5094130;28;20070;-83
2021/07/08 07:00:20;;;;;;;18.77;8.82;;;665.90;2432.00;;;;;;5092805;28;20030;-82
2021/07/08 07:02:46;;;;;;;16.65;9.10;;;;;;;;;;5092926;28;20028;-83
2021/07/08 07:05:12;;;;;;;10.27;8.43;;;;;;;;;;5092925;28;20084;-84
2021/07/08 07:07:38;;;;;;;13.88;9.00;;;666.50;2432.00;;;;;;5092664;28;20087;-82
2021/07/08 07:10:04;;;;;;;10.00;8.32;;;666.50;2432.00;;;;;;5092801;28;20024;-84
2021/07/08 07:12:30;;;;;;;15.52;8.65;;;691.20;2432.00;;;;;;5092610;28;20134;-82
2021/07/08 07:14:56;;;;;;;12.55;8.13;;;691.40;2432.00;;;;;;5092498;28;20490;-83
2021/07/08 07:17:22;;;;;;;10.43;9.32;;;691.40;2432.00;;;;;;5092734;28;20106;-82
2021/07/08 07:19:48;;;;;;;15.55;8.93;;;691.60;2432.00;;;;;;5093988;28;20016;-82
2021/07/08 07:22:13;;;;;;;15.65;9.32;;;691.70;2432.00;;;;;;5092519;28;20028;-83
2021/07/08 07:24:40;;;;;;;12.90;8.93;;;691.90;2432.00;;;;;;5092539;28;20497;-83
2021/07/08 07:27:06;;;;;;;11.38;9.43;;;692.10;2432.00;;;;;;5092913;28;20043;-84
2021/07/08 07:29:32;;;;;;;9.13;8.15;;;692.10;2432.00;;;;;;5092344;28;20024;-83
2021/07/08 07:31:58;;;;;;;15.95;9.00;;;716.80;2432.00;;;;;;5092464;28;20020;-82
2021/07/08 07:34:24;;;;;;;12.15;8.80;;;717.10;2432.00;;;;;;5092501;28;20020;-82
2021/07/08 07:36:49;;;;;;;14.18;9.55;;;717.20;2432.00;;;;;;5093705;28;20103;-83
2021/07/08 07:39:15;;;;;;;14.75;8.68;;;717.30;2432.00;;;;;;5092558;28;20056;-83
2021/07/08 07:41:41;;;;;;;11.07;8.38;;;717.50;2432.00;;;;;;5092538;28;20054;-82
2021/07/08 07:44:07;;;;;;;11.52;9.68;;;717.70;2406.40;;;;;;5091967;28;20051;-83
2021/07/08 07:46:33;;;;;;;11.30;8.63;;;742.40;2432.00;;;;;;5092607;28;20020;-83
2021/07/08 07:48:59;;;;;;;9.75;8.75;;;742.40;2432.00;;;;;;5092338;28;20024;-84
2021/07/08 07:51:25;;;;;;;9.95;8.15;;;742.50;2432.00;;;;;;5095073;28;20027;-83
2021/07/08 07:53:51;;;;;;;12.23;9.50;;;742.80;2406.40;;;;;;5096226;28;20375;-82
2021/07/08 07:56:17;;;;;;;14.18;8.93;;;743.10;2380.80;;;;;;5095869;28;20114;-83
2021/07/08 07:58:43;;;;;;;12.23;8.57;;;768.00;2355.20;;;;;;5096142;28;20024;-82
2021/07/08 08:01:08;;;;;;;11.95;9.27;;;768.10;2304.00;;;;;;5096052;28;20016;-82
2021/07/08 08:03:34;;;;;;;13.05;8.68;;;768.00;2304.00;;;;;;5097048;28;20028;-85
2021/07/08 08:08:45;;;;;;;9.52;8.63;;;768.40;2278.40;;;;;;5097171;28;20077;-82
2021/07/08 08:11:11;;;;;;;14.30;8.93;;;768.60;2278.40;;;;;;5095614;28;20418;-81
2021/07/08 08:13:39;;;;;;;10.52;8.40;;;768.80;2252.80;;;;;;5095995;28;20371;-81
2021/07/08 08:16:07;;;;;;;10.65;7.63;;;793.60;2252.80;;;;;;5095696;28;20065;-82
2021/07/08 08:18:34;;;;;;;12.07;9.02;;;768.90;2176.00;;;;;;5095575;28;20020;-81
2021/07/08 08:20:59;;;;;;;10.32;8.23;;;793.70;2227.20;;;;;;5095995;28;20077;-81
2021/07/08 08:23:25;;;;;;;12.50;8.52;;;793.70;2176.00;;;;;;5095457;28;20040;-85
2021/07/08 08:25:51;;;;;;;14.73;8.32;;;793.60;2176.00;;;;;;5095632;28;20016;-83
2021/07/08 08:28:17;;;;;;;9.73;8.45;;;793.70;2201.60;;;;;;5095860;28;20510;-80
2021/07/08 08:30:44;;;;;;;11.85;7.95;;;794.00;2176.00;;;;;;5095196;28;20523;-80
2021/07/08 08:33:11;;;;;;;10.13;8.27;;;794.30;2150.40;;;;;;5095101;28;20524;-78
2021/07/08 08:35:37;;;;;;;12.05;8.25;;;794.20;2124.80;;;;;;5094961;28;20020;-79
2021/07/08 08:38:04;;;;;;;9.75;7.88;;;794.40;2124.80;;;;;;5094741;28;20024;-79
2021/07/08 08:40:30;;;;;;;9.70;8.55;;;794.50;2073.60;;;;;;5094997;28;20509;-82
2021/07/08 08:42:56;;;;;;;10.40;7.80;;;819.30;2099.20;;;;;;5094550;28;20383;-82
2021/07/08 08:45:22;;;;;;;12.32;11.02;;;819.60;2048.00;;;;;;5095743;28;20024;-80
2021/07/08 08:48:02;;;;;;;11.98;8.90;;;819.70;1996.80;;;;;;5094617;28;20425;-80
2021/07/08 08:50:48;;;;;;;16.65;9.63;;;819.80;1996.80;;;;;;5094665;28;20467;-80
2021/07/08 08:53:16;;;;;;;11.63;7.78;;;820.10;1996.80;;;;;;5093880;28;20035;-80
2021/07/08 08:55:44;;;;;;;8.90;8.00;;;844.90;1945.60;;;;;;5094296;28;20020;-80
2021/07/08 08:58:13;;;;;;;13.82;9.60;;;844.90;1945.60;;;;;;5095249;28;20475;-79
2021/07/08 09:00:46;;;;;;;14.23;10.05;;;845.20;1920.00;;;;;;5094835;28;20341;-78
2021/07/08 09:03:16;;;;;;;9.52;8.02;;;845.40;1894.40;;;;;;5093592;28;20020;-78
2021/07/08 09:05:44;;;;;;;9.40;8.40;;;845.50;1894.40;;;;;;5095156;28;20048;-79
2021/07/08 09:08:23;;;;;;;13.38;7.95;;;845.60;1894.40;;;;;;5093610;28;20027;-80
2021/07/08 09:11:01;;;;;;;10.38;7.00;;;845.40;1843.20;;;;;;5109449;28;20016;-78
2021/07/08 09:13:27;;;;;;;9.98;8.32;;;845.10;1894.40;;;;;;5094843;28;20024;-79
2021/07/08 09:15:53;;;;;;;9.70;7.15;;;845.40;1868.80;;;;;;5096191;28;20020;-79
2021/07/08 09:18:25;;;;;;;13.20;9.50;;;845.40;1817.60;;;;;;5095112;28;20024;-79
2021/07/08 09:20:51;;;;;;;8.65;7.75;;;845.70;1843.20;;;;;;5105441;28;20099;-79
2021/07/08 09:23:18;;;;;;;12.00;7.13;;;870.50;1792.00;;;;;;5093257;28;20115;-79
2021/07/08 09:25:46;;;;;;;12.43;10.65;;;870.70;1740.80;;;;;;5094347;28;20024;-78
2021/07/08 09:28:16;;;;;;;12.40;9.18;;;870.80;1740.80;;;;;;5092994;28;20028;-78
2021/07/08 09:30:44;;;;;;;12.30;10.25;;;870.80;1715.20;;;;;;5093485;28;20099;-79
2021/07/08 09:33:35;;;;;;;9.00;7.40;;;871.10;1715.20;;;;;;5092967;28;20478;-80
2021/07/08 09:36:13;;;;;;;8.48;6.68;;;871.20;1664.00;;;;;;5093231;28;20023;-80
2021/07/08 09:38:41;;;;;;;11.68;6.90;;;870.90;1638.40;;;;;;5094870;28;20107;-80
2021/07/08 09:41:15;;;;;;;10.27;6.53;;;870.70;1664.00;;;;;;5093206;28;20055;-81
2021/07/08 09:43:41;;;;;;;10.68;6.53;;;870.70;1638.40;;;;;;5089176;28;20047;-84
2021/07/08 09:46:09;;;;;;;16.02;7.90;;;870.90;1664.00;;;;;;5093448;28;20024;-80
2021/07/08 09:48:36;;;;;;;7.40;6.07;;;871.10;1638.40;;;;;;5093278;28;20016;-82
2021/07/08 09:51:04;;;;;;;8.93;6.78;;;871.30;1587.20;;;;;;5093340;28;20016;-80
2021/07/08 09:53:31;;;;;;;8.98;6.65;;;896.20;1612.80;;;;;;5093404;28;20050;-80
2021/07/08 09:58:54;;;;;;;9.82;5.43;;;896.40;1536.00;;;;;;5094368;28;20055;-81
2021/07/08 10:01:21;;;;;;;8.90;6.22;;;896.60;1536.00;;;;;;5093521;28;20016;-81
2021/07/08 10:03:50;;;;;;;9.82;5.85;;;896.80;1536.00;;;;;;5093567;28;20024;-81
2021/07/08 10:06:17;;;;;;;7.93;5.95;;;921.60;1536.00;;;;;;5092895;28;20024;-81
2021/07/08 10:08:44;;;;;;;11.00;5.97;;;922.00;1510.40;;;;;;5093054;28;20028;-82
2021/07/08 10:11:15;;;;;;;8.77;6.15;;;922.10;1510.40;;;;;;5093242;28;20020;-83
2021/07/08 10:13:45;;;;;;;9.80;5.65;;;922.20;1536.00;;;;;;5092799;28;20024;-82
2021/07/08 10:16:13;;;;;;;12.25;6.90;;;921.70;1484.80;;;;;;5093151;28;20020;-82
2021/07/08 10:18:41;;;;;;;8.80;5.78;;;896.90;1510.40;;;;;;5092960;28;20074;-81
2021/07/08 10:21:08;;;;;;;8.27;5.78;;;921.60;1484.80;;;;;;5092022;28;20031;-82
2021/07/08 10:23:37;;;;;;;8.48;5.55;;;896.90;1433.60;;;;;;5092240;28;20223;-82
2021/07/08 10:26:04;;;;;;;8.80;5.93;;;921.60;1484.80;;;;;;5092721;28;20023;-81
2021/07/08 10:28:33;;;;;;;7.30;5.82;;;922.00;1484.80;;;;;;5092646;28;20436;-82
2021/07/08 10:31:00;;;;;;;6.95;5.55;;;921.70;1459.20;;;;;;5092710;28;20020;-80
2021/07/08 10:33:26;;;;;;;11.35;7.78;;;921.60;1459.20;;;;;;5092751;28;20141;-82
2021/07/08 10:35:54;;;;;;;11.45;8.07;;;921.80;1459.20;;;;;;5093023;28;20111;-82
2021/07/08 10:38:35;;;;;;;12.68;7.13;;;922.10;1484.80;;;;;;5094189;28;20023;-82
2021/07/08 10:41:22;;;;;;;9.50;5.97;;;922.50;1408.00;;;;;;5092895;28;20028;-81
2021/07/08 10:43:49;;;;;;;10.10;5.65;;;947.20;1408.00;;;;;;5084865;28;20071;-84
2021/07/08 10:46:16;;;;;;;9.40;6.32;;;947.50;1408.00;;;;;;5092818;28;20024;-82
2021/07/08 10:48:50;;;;;;;9.25;5.35;;;947.60;1382.40;;;;;;5092649;28;20024;-81
2021/07/08 10:51:39;;;;;;;6.63;5.53;;;947.30;1382.40;;;;;;5092951;28;20031;-82
2021/07/08 10:54:25;;;;;;;6.85;5.68;;;922.50;1356.80;;;;;;5092917;28;20122;-82
2021/07/08 10:56:51;;;;;;;6.45;5.18;;;947.40;1356.80;;;;;;5092590;28;20020;-81
2021/07/08 10:59:17;;;;;;;8.02;5.68;;;947.70;1331.20;;;;;;5093970;28;20078;-81
2021/07/08 11:01:46;;;;;;;6.95;5.10;;;947.90;1331.20;;;;;;5092343;28;20020;-82
2021/07/08 11:04:13;;;;;;;6.00;5.00;;;948.10;1331.20;;;;;;5092606;28;20032;-80
2021/07/08 11:06:41;;;;;;;6.75;5.00;;;973.00;1331.20;;;;;;5092822;28;20024;-81
2021/07/08 11:09:17;;;;;;;7.53;5.38;;;973.00;1305.60;;;;;;5092488;28;20012;-82
2021/07/08 11:11:46;;;;;;;7.78;5.18;;;973.10;1305.60;;;;;;5092754;28;20045;-83
2021/07/08 11:14:14;;;;;;;9.13;5.32;;;973.20;1305.60;;;;;;5092624;28;20034;-81
2021/07/08 11:16:53;;;;;;;9.52;5.60;;;972.90;1305.60;;;;;;5092249;28;20063;-81
2021/07/08 11:19:19;;;;;;;9.40;5.50;;;947.80;1305.60;;;;;;5092801;28;20051;-81
2021/07/08 11:22:16;;;;;;;8.95;5.85;;;947.80;1305.60;;;;;;5092475;28;20056;-81
2021/07/08 11:24:53;;;;;;;8.43;5.43;;;947.80;1331.20;;;;;;5093334;28;20119;-82
2021/07/08 11:27:24;;;;;;;6.93;5.28;;;947.50;1280.00;;;;;;5096605;28;20129;-83
2021/07/08 11:29:54;;;;;;;9.95;5.25;;;948.10;1280.00;;;;;;5096181;28;20027;-81
2021/07/08 11:32:31;;;;;;;7.70;5.63;;;947.90;1280.00;;;;;;5096245;28;20020;-81
2021/07/08 11:35:04;;;;;;;8.02;4.97;;;973.10;1305.60;;;;;;5096218;28;20521;-80
2021/07/08 11:37:44;;;;;;;5.72;4.82;;;973.20;1280.00;;;;;;5095882;28;20040;-82
2021/07/08 11:40:16;;;;;;;8.90;4.65;;;973.50;1254.40;;;;;;5097330;28;20020;-81
2021/07/08 11:42:45;;;;;;;9.10;5.50;;;973.70;1228.80;;;;;;5095854;28;20170;-81
2021/07/08 11:45:14;;;;;;;8.80;4.88;;;973.50;1254.40;;;;;;5095805;28;20534;-80
2021/07/08 11:47:47;;;;;;;25.98;5.43;;;973.70;1203.20;;;;;;5095829;28;20024;-81
2021/07/08 11:50:29;;;;;;;7.65;4.57;;;998.50;1203.20;;;;;;5096219;28;20454;-81
2021/07/08 11:53:16;;;;;;;7.25;4.72;;;998.70;1203.20;;;;;;5096031;28;20024;-82
2021/07/08 11:55:43;;;;;;;6.60;4.70;;;998.90;1203.20;;;;;;5096121;28;20027;-80
2021/07/08 11:58:11;;;;;;;5.85;4.10;;;998.90;1203.20;;;;;;5095650;28;20101;-81
2021/07/08 12:00:41;;;;;;;5.72;3.90;;;998.80;1152.00;;;;;;5095480;28;20024;-80
2021/07/08 12:03:21;;;;;;;5.50;3.83;;;998.80;1152.00;;;;;;5095488;28;20035;-81
2021/07/08 12:05:48;;;;;;;7.55;4.82;;;998.90;1177.60;;;;;;5095072;28;20117;-80
2021/07/08 12:09:06;;;;;;;7.78;4.53;;;998.80;1177.60;;;;;;5095338;28;20153;-80
2021/07/08 12:11:38;;;;;;;11.07;6.57;;;999.20;1177.60;;;;;;5056877;28;20147;-81
2021/07/08 12:14:11;;;;;;;7.57;6.20;;;998.90;1203.20;;;;;;5057320;28;20111;-80
2021/07/08 12:16:39;;;;;;;14.20;6.40;;;999.10;1177.60;;;;;;5077784;28;20059;-80
2021/07/08 12:19:08;;;;;;;13.90;6.30;;;999.30;1177.60;;;;;;5094887;28;20024;-80
2021/07/08 12:21:36;;;;;;;9.93;5.43;;;1024.00;1152.00;;;;;;5095151;28;20031;-82